Saint Albans, Vermont
Current Conditions -  °F | °C
As of 6:55 PM on Friday 31 Oct 2014 (Local Time) from KFSO Reporting Station
Broken Clouds Broken Clouds  
Wind Chill: 35°   Ceiling: 11000
Heat Index: 40°   Visibility: 10mi
Dew Point: 28°   Wind: 8mph
Humidity: 60%   Direction: 20°NNE
Pressure: 30.07"   Gusts: NA
Location:  44.81°N, 73.08°W
Report Text: KFSO 312255Z AUTO 02007KT 10SM BKN110 05/M02 A3007 RMK AO2 T00471025
Loading
Personal Weather Stations






























Interactive Weather Map
Tropical Storm Tracking
New forecast layout! Learn more

10-Day Weather Forecast

Advertisements
Track Severe Weather on mobile